Time;durP1;ratioP1;P1;durP2;ratioP2;P2;SDS_P1;SDS_P2;PMS_P1;PMS_P2;Temp;Humidity;BMP_temperature;BMP_pressure;BME280_temperature;BME280_humidity;BME280_pressure;Samples;Min_cycle;Max_cycle;Signal;HPM_P1;HPM_P2
2021/05/18 00:00:00;;;;;;;15.67;4.70;;;;;;;;;;12907550;23;20664;-83
2021/05/18 00:05:03;;;;;;;12.90;4.20;;;;;;;;;;12820789;22;20545;-80
2021/05/18 00:15:29;;;;;;;16.27;5.23;;;;;;;;;;12886581;23;20380;-80
2021/05/18 00:20:31;;;;;;;10.47;4.30;;;;;;;;;;12905642;23;20203;-80
2021/05/18 00:25:34;;;;;;;10.97;4.70;;;;;;;;;;12888437;23;20186;-80
2021/05/18 00:30:37;;;;;;;14.70;5.13;;;;;;;;;;12908093;23;20558;-80
2021/05/18 00:35:40;;;;;;;13.57;5.13;;;;;;;;;;12905740;23;20175;-81
2021/05/18 00:40:43;;;;;;;13.60;5.27;;;;;;;;;;12889995;23;20667;-80
2021/05/18 00:45:46;;;;;;;11.37;4.77;;;;;;;;;;12913680;23;20198;-80
2021/05/18 00:50:50;;;;;;;10.83;4.57;;;;;;;;;;12885620;23;20537;-81
2021/05/18 00:55:55;;;;;;;11.57;4.47;;;;;;;;;;12909293;23;20167;-80
2021/05/18 01:00:59;;;;;;;15.87;5.47;;;;;;;;;;12883250;23;20203;-80
2021/05/18 01:06:24;;;;;;;14.93;5.53;;;;;;;;;;12847847;23;20211;-80
2021/05/18 01:11:27;;;;;;;12.70;5.60;;;;;;;;;;12843479;23;20655;-80
2021/05/18 01:16:31;;;;;;;12.53;5.90;;;;;;;;;;12845955;23;20182;-80
2021/05/18 01:21:35;;;;;;;13.10;5.80;;;;;;;;;;12824150;23;20211;-80
2021/05/18 01:26:38;;;;;;;13.07;5.83;;;;;;;;;;12845790;23;20180;-80
2021/05/18 01:31:41;;;;;;;18.10;7.20;;;;;;;;;;12821454;23;20621;-81
2021/05/18 01:36:45;;;;;;;17.53;8.43;;;;;;;;;;12824854;23;20176;-79
2021/05/18 01:47:11;;;;;;;16.47;7.67;;;;;;;;;;12822798;23;20168;-80
2021/05/18 01:52:15;;;;;;;15.27;7.73;;;;;;;;;;12823776;23;20664;-82
2021/05/18 01:57:19;;;;;;;15.80;7.93;;;;;;;;;;12846021;23;20176;-79
2021/05/18 02:02:22;;;;;;;16.97;7.90;;;;;;;;;;12838746;23;20214;-80
2021/05/18 02:07:28;;;;;;;15.57;7.40;;;;;;;;;;12843411;23;20206;-80
2021/05/18 02:12:30;;;;;;;15.63;7.23;;;;;;;;;;12814424;23;20434;-80
2021/05/18 02:17:34;;;;;;;17.13;7.10;;;;;;;;;;12821554;23;20176;-80
2021/05/18 02:27:59;;;;;;;13.80;6.87;;;;;;;;;;12841683;23;20171;-79
2021/05/18 02:33:03;;;;;;;14.50;7.10;;;;;;;;;;12840542;23;20187;-80
2021/05/18 02:38:06;;;;;;;18.03;7.97;;;;;;;;;;12817525;23;20220;-79
2021/05/18 02:43:13;;;;;;;14.27;7.13;;;;;;;;;;12841685;23;20497;-79
2021/05/18 02:53:37;;;;;;;16.60;7.60;;;;;;;;;;12842509;23;20179;-79
2021/05/18 02:58:41;;;;;;;16.97;8.43;;;;;;;;;;12807109;23;20215;-80
2021/05/18 03:03:44;;;;;;;18.30;8.33;;;;;;;;;;12817306;23;20200;-79
2021/05/18 03:08:48;;;;;;;19.03;7.60;;;;;;;;;;12820813;23;20209;-78
2021/05/18 03:13:50;;;;;;;13.40;7.60;;;;;;;;;;12840379;23;20663;-79
2021/05/18 03:18:52;;;;;;;16.50;8.30;;;;;;;;;;12838883;23;20207;-79
2021/05/18 03:23:56;;;;;;;11.77;7.83;;;;;;;;;;12839433;23;20516;-79
2021/05/18 03:29:00;;;;;;;16.57;8.07;;;;;;;;;;12818803;23;20500;-78
2021/05/18 03:39:24;;;;;;;17.13;8.50;;;;;;;;;;12839430;23;20259;-80
2021/05/18 03:44:41;;;;;;;16.67;8.90;;;;;;;;;;12820013;23;20195;-78
2021/05/18 03:58:33;;;;;;;18.33;9.70;;;;;;;;;;12842542;23;20168;-78
2021/05/18 12:35:44;;;;;;;6.17;2.47;;;;;;;;;;12938322;22;20497;-79
2021/05/18 12:40:46;;;;;;;3.53;2.30;;;;;;;;;;12964737;22;20858;-76
2021/05/18 12:46:05;;;;;;;6.37;2.83;;;;;;;;;;12938104;22;20186;-78
2021/05/18 12:51:16;;;;;;;6.47;2.27;;;;;;;;;;12961883;22;20178;-78
2021/05/18 13:01:39;;;;;;;4.13;2.00;;;;;;;;;;12873387;23;20489;-78
2021/05/18 13:06:45;;;;;;;5.37;2.10;;;;;;;;;;12816085;23;20179;-77
2021/05/18 13:17:10;;;;;;;4.43;1.90;;;;;;;;;;12829914;23;20198;-78
2021/05/18 13:22:14;;;;;;;6.17;2.37;;;;;;;;;;12819722;23;20670;-78
2021/05/18 13:27:16;;;;;;;4.30;2.00;;;;;;;;;;12818730;23;20239;-78
2021/05/18 13:32:19;;;;;;;2.77;1.63;;;;;;;;;;12818644;23;20176;-77
2021/05/18 13:37:23;;;;;;;4.20;2.00;;;;;;;;;;12842086;23;20275;-77
2021/05/18 13:42:41;;;;;;;5.03;1.83;;;;;;;;;;12821934;23;20242;-76
2021/05/18 13:47:44;;;;;;;5.00;2.30;;;;;;;;;;12816893;23;20184;-76
2021/05/18 13:52:48;;;;;;;5.80;2.00;;;;;;;;;;12819200;23;20663;-78
2021/05/18 13:57:51;;;;;;;1.90;1.60;;;;;;;;;;12838919;23;20476;-77
2021/05/18 14:02:54;;;;;;;2.97;1.57;;;;;;;;;;12839477;23;20219;-76
2021/05/18 14:08:19;;;;;;;3.67;1.70;;;;;;;;;;12837621;23;20210;-78
2021/05/18 14:13:22;;;;;;;2.10;1.43;;;;;;;;;;12839273;23;20473;-79
2021/05/18 14:18:24;;;;;;;2.67;1.50;;;;;;;;;;12834134;23;20278;-77
2021/05/18 14:23:31;;;;;;;4.37;1.40;;;;;;;;;;12842270;23;20184;-79
2021/05/18 14:28:34;;;;;;;4.43;1.90;;;;;;;;;;12836197;23;20510;-77
2021/05/18 14:33:36;;;;;;;1.80;1.37;;;;;;;;;;12836031;23;20664;-78
2021/05/18 14:38:45;;;;;;;3.30;1.50;;;;;;;;;;12837217;23;20211;-77
2021/05/18 14:44:09;;;;;;;4.03;1.70;;;;;;;;;;12840668;23;20250;-78
2021/05/18 14:54:46;;;;;;;3.60;1.53;;;;;;;;;;12814319;23;20222;-76
2021/05/18 14:59:49;;;;;;;2.73;1.50;;;;;;;;;;12837234;23;20537;-78
2021/05/18 15:04:51;;;;;;;2.47;1.80;;;;;;;;;;12832004;23;20739;-79
2021/05/18 15:09:55;;;;;;;5.57;1.70;;;;;;;;;;12838743;23;20235;-81
2021/05/18 15:20:19;;;;;;;3.17;1.40;;;;;;;;;;12746324;23;20410;-79
2021/05/18 15:25:22;;;;;;;4.33;1.50;;;;;;;;;;12777916;23;20184;-81
2021/05/18 15:30:24;;;;;;;3.97;1.30;;;;;;;;;;12780133;23;20192;-79
2021/05/18 15:35:25;;;;;;;3.13;1.27;;;;;;;;;;12755078;23;20678;-79
2021/05/18 15:40:28;;;;;;;6.30;1.50;;;;;;;;;;12757645;23;20516;-78
2021/05/18 15:45:30;;;;;;;2.90;1.27;;;;;;;;;;12756981;23;20191;-78
2021/05/18 15:50:34;;;;;;;2.77;1.20;;;;;;;;;;12753571;23;20207;-79
2021/05/18 15:55:36;;;;;;;4.80;1.47;;;;;;;;;;12773823;23;20188;-79
2021/05/18 16:00:37;;;;;;;2.97;1.20;;;;;;;;;;12754590;23;20184;-76
2021/05/18 16:05:39;;;;;;;4.90;1.30;;;;;;;;;;12831880;23;20196;-76
2021/05/18 16:10:42;;;;;;;3.93;1.57;;;;;;;;;;12834965;23;20211;-86
2021/05/18 16:15:43;;;;;;;3.23;1.60;;;;;;;;;;12837213;23;20250;-79
2021/05/18 16:20:46;;;;;;;4.00;1.50;;;;;;;;;;12834088;23;20172;-79
2021/05/18 16:25:50;;;;;;;2.80;1.60;;;;;;;;;;12836892;23;20271;-78
2021/05/18 16:30:53;;;;;;;3.87;1.80;;;;;;;;;;12830284;23;20179;-76
2021/05/18 16:35:55;;;;;;;2.83;1.50;;;;;;;;;;12837890;23;20203;-79
2021/05/18 16:40:58;;;;;;;2.53;1.27;;;;;;;;;;12833545;23;20526;-77
2021/05/18 16:46:01;;;;;;;4.00;1.50;;;;;;;;;;12834964;23;20579;-79
2021/05/18 16:51:04;;;;;;;4.40;1.50;;;;;;;;;;12816454;23;20183;-77
2021/05/18 16:56:09;;;;;;;4.07;1.60;;;;;;;;;;12817395;23;20210;-80
2021/05/18 17:01:13;;;;;;;2.85;1.33;;;;;;;;;;12831035;23;20476;-76
2021/05/18 17:06:36;;;;;;;2.70;1.30;;;;;;;;;;12818328;23;20183;-83
2021/05/18 17:11:40;;;;;;;2.90;1.43;;;;;;;;;;12836823;23;20242;-77
2021/05/18 17:16:43;;;;;;;3.07;1.40;;;;;;;;;;12837861;23;20286;-78
2021/05/18 17:21:45;;;;;;;4.20;2.00;;;;;;;;;;12839976;23;20196;-77
2021/05/18 17:26:49;;;;;;;5.20;1.90;;;;;;;;;;12840786;23;20293;-77
2021/05/18 17:31:52;;;;;;;2.77;1.60;;;;;;;;;;12817060;23;20233;-83
2021/05/18 17:36:54;;;;;;;2.77;1.40;;;;;;;;;;12837711;23;20736;-79
2021/05/18 17:41:58;;;;;;;3.50;1.30;;;;;;;;;;12836004;23;20183;-79
2021/05/18 17:47:00;;;;;;;3.63;1.40;;;;;;;;;;12838434;23;20190;-79
2021/05/18 17:52:07;;;;;;;5.77;1.40;;;;;;;;;;12819310;23;20264;-79
2021/05/18 17:57:10;;;;;;;3.07;1.30;;;;;;;;;;12827067;23;20291;-79
2021/05/18 18:02:13;;;;;;;6.73;1.80;;;;;;;;;;12827387;23;20275;-80
2021/05/18 18:07:15;;;;;;;3.33;1.60;;;;;;;;;;12848668;23;20643;-82
2021/05/18 18:12:19;;;;;;;6.33;1.60;;;;;;;;;;12827521;23;20175;-82
2021/05/18 18:17:24;;;;;;;6.90;1.60;;;;;;;;;;12845094;23;20203;-82
2021/05/18 18:22:27;;;;;;;4.60;1.60;;;;;;;;;;12824067;23;20716;-81
2021/05/18 18:27:30;;;;;;;3.57;1.70;;;;;;;;;;12826154;23;20188;-81
2021/05/18 18:32:34;;;;;;;5.63;1.60;;;;;;;;;;12843484;23;20586;-81
2021/05/18 18:37:38;;;;;;;4.57;1.60;;;;;;;;;;12826719;23;20246;-81
2021/05/18 18:42:41;;;;;;;4.03;1.60;;;;;;;;;;12826293;23;20563;-82
2021/05/18 18:47:43;;;;;;;2.77;1.60;;;;;;;;;;12841460;23;20186;-82
2021/05/18 18:52:54;;;;;;;2.93;1.60;;;;;;;;;;12846466;23;20517;-82
2021/05/18 18:57:58;;;;;;;3.23;1.67;;;;;;;;;;12842040;23;20201;-83
2021/05/18 19:03:04;;;;;;;4.33;1.73;;;;;;;;;;12822571;23;20199;-82
2021/05/18 19:08:26;;;;;;;3.53;1.83;;;;;;;;;;12842148;23;20180;-82
2021/05/18 19:13:29;;;;;;;4.10;1.63;;;;;;;;;;12842812;23;20618;-83
2021/05/18 19:18:31;;;;;;;3.13;2.00;;;;;;;;;;12840672;23;20527;-82
2021/05/18 19:23:34;;;;;;;6.13;2.03;;;;;;;;;;12846220;23;20241;-81
2021/05/18 19:28:38;;;;;;;4.77;1.90;;;;;;;;;;12844751;23;20211;-83
2021/05/18 19:33:41;;;;;;;3.73;1.80;;;;;;;;;;12842711;23;20179;-83
2021/05/18 19:44:15;;;;;;;3.13;1.80;;;;;;;;;;12844298;23;20334;-83
2021/05/18 19:49:19;;;;;;;3.77;2.20;;;;;;;;;;12840008;23;20943;-82
2021/05/18 19:54:24;;;;;;;3.90;2.37;;;;;;;;;;12819126;23;20199;-83
2021/05/18 20:16:11;;;;;;;4.47;2.30;;;;;;;;;;12794712;23;20675;-83
2021/05/18 20:21:15;;;;;;;7.60;2.30;;;;;;;;;;12843979;23;20207;-82
2021/05/18 20:26:18;;;;;;;3.37;1.90;;;;;;;;;;12843078;23;20258;-82
2021/05/18 20:31:21;;;;;;;8.23;2.57;;;;;;;;;;12840320;23;20176;-82
2021/05/18 20:41:47;;;;;;;4.53;2.20;;;;;;;;;;12846831;23;20380;-82
2021/05/18 20:46:50;;;;;;;7.63;2.53;;;;;;;;;;12841708;23;20231;-82
2021/05/18 20:51:57;;;;;;;3.57;2.30;;;;;;;;;;12845162;23;20184;-82
2021/05/18 20:56:59;;;;;;;6.53;2.70;;;;;;;;;;12824834;23;20211;-82
2021/05/18 21:02:03;;;;;;;4.23;2.43;;;;;;;;;;12842556;23;20199;-82
2021/05/18 21:07:16;;;;;;;5.80;2.57;;;;;;;;;;12843542;23;20176;-83
2021/05/18 21:12:28;;;;;;;5.70;2.43;;;;;;;;;;12845725;23;20168;-82
2021/05/18 21:17:32;;;;;;;5.43;2.40;;;;;;;;;;12842436;23;20248;-82
2021/05/18 21:22:38;;;;;;;4.83;2.23;;;;;;;;;;12822890;23;20522;-82
2021/05/18 21:27:41;;;;;;;3.30;2.40;;;;;;;;;;12823411;23;20207;-82
2021/05/18 21:32:44;;;;;;;5.50;2.27;;;;;;;;;;12820977;23;20734;-80
2021/05/18 21:37:46;;;;;;;3.33;2.30;;;;;;;;;;12844831;23;20731;-80
2021/05/18 21:42:53;;;;;;;4.20;2.43;;;;;;;;;;12847180;23;20520;-79
2021/05/18 21:47:56;;;;;;;7.53;2.50;;;;;;;;;;12847188;23;20195;-80
2021/05/18 21:53:00;;;;;;;3.57;2.40;;;;;;;;;;12848727;23;20210;-80
2021/05/18 21:58:06;;;;;;;6.23;2.67;;;;;;;;;;12849120;23;20208;-81
2021/05/18 22:03:10;;;;;;;7.23;2.70;;;;;;;;;;12824817;23;20219;-81
2021/05/18 22:08:17;;;;;;;3.57;2.30;;;;;;;;;;12847983;23;20200;-80
2021/05/18 22:13:23;;;;;;;3.10;2.37;;;;;;;;;;12850609;23;20179;-80
2021/05/18 22:29:09;;;;;;;4.63;2.60;;;;;;;;;;12829618;23;20182;-81
2021/05/18 22:34:13;;;;;;;4.77;2.60;;;;;;;;;;12849060;23;20176;-79
2021/05/18 22:39:15;;;;;;;4.23;2.63;;;;;;;;;;12849902;23;20290;-82
2021/05/18 22:44:18;;;;;;;5.17;2.87;;;;;;;;;;12826520;23;20176;-80
2021/05/18 22:49:21;;;;;;;5.00;2.80;;;;;;;;;;12847342;23;20524;-80
2021/05/18 22:54:23;;;;;;;4.50;2.60;;;;;;;;;;12827328;23;20183;-80
2021/05/18 22:59:25;;;;;;;6.07;3.17;;;;;;;;;;12828096;23;20275;-82
2021/05/18 23:04:46;;;;;;;4.83;3.17;;;;;;;;;;12843781;23;20206;-81
2021/05/18 23:09:48;;;;;;;6.53;3.13;;;;;;;;;;12849939;23;20190;-80
2021/05/18 23:14:52;;;;;;;7.63;3.17;;;;;;;;;;12845063;23;20171;-80
2021/05/18 23:19:59;;;;;;;6.33;3.20;;;;;;;;;;12846763;23;20215;-80
2021/05/18 23:25:01;;;;;;;6.77;3.37;;;;;;;;;;12845564;23;20394;-82
2021/05/18 23:30:04;;;;;;;5.47;3.40;;;;;;;;;;12847297;23;20180;-82
2021/05/18 23:35:08;;;;;;;5.23;3.60;;;;;;;;;;12842650;23;20727;-81
2021/05/18 23:40:11;;;;;;;7.13;3.70;;;;;;;;;;12828425;23;20208;-81
2021/05/18 23:45:14;;;;;;;6.00;3.93;;;;;;;;;;12824921;23;20234;-81
2021/05/18 23:50:19;;;;;;;7.33;4.33;;;;;;;;;;12845159;23;20725;-81
2021/05/18 23:55:21;;;;;;;8.47;4.23;;;;;;;;;;12846798;23;20946;-81
